sensor_id;sensor_type;location;lat;lon;timestamp;temperature;humidity
21778;DHT22;11050;52.222;20.916;2023-11-21T00:00:19;1.20;99.90
21778;DHT22;11050;52.222;20.916;2023-11-21T00:02:45;1.20;99.90
21778;DHT22;11050;52.222;20.916;2023-11-21T00:05:12;1.10;99.90
21778;DHT22;11050;52.222;20.916;2023-11-21T00:07:43;1.10;99.90
21778;DHT22;11050;52.222;20.916;2023-11-21T00:10:09;1.10;99.90
21778;DHT22;11050;52.222;20.916;2023-11-21T00:12:36;1.10;99.90
21778;DHT22;11050;52.222;20.916;2023-11-21T00:15:03;1.10;99.90
21778;DHT22;11050;52.222;20.916;2023-11-21T00:17:47;1.10;99.90
21778;DHT22;11050;52.222;20.916;2023-11-21T00:20:13;1.00;99.90
21778;DHT22;11050;52.222;20.916;2023-11-21T00:22:39;1.00;99.90
21778;DHT22;11050;52.222;20.916;2023-11-21T00:25:06;1.00;99.90
21778;DHT22;11050;52.222;20.916;2023-11-21T00:27:37;1.00;99.90
21778;DHT22;11050;52.222;20.916;2023-11-21T00:30:03;1.00;99.90
21778;DHT22;11050;52.222;20.916;2023-11-21T00:32:31;1.00;99.90
21778;DHT22;11050;52.222;20.916;2023-11-21T00:34:56;1.00;99.90
21778;DHT22;11050;52.222;20.916;2023-11-21T00:37:22;1.00;99.90
21778;DHT22;11050;52.222;20.916;2023-11-21T00:39:49;1.00;99.90
21778;DHT22;11050;52.222;20.916;2023-11-21T00:42:15;0.90;99.90
21778;DHT22;11050;52.222;20.916;2023-11-21T00:44:40;1.00;99.90
21778;DHT22;11050;52.222;20.916;2023-11-21T00:47:06;0.90;99.90
21778;DHT22;11050;52.222;20.916;2023-11-21T00:49:33;0.90;99.90
21778;DHT22;11050;52.222;20.916;2023-11-21T00:51:59;0.90;99.90
21778;DHT22;11050;52.222;20.916;2023-11-21T00:54:24;0.90;99.90
21778;DHT22;11050;52.222;20.916;2023-11-21T00:56:52;0.90;99.90
21778;DHT22;11050;52.222;20.916;2023-11-21T00:59:18;0.90;99.90
21778;DHT22;11050;52.222;20.916;2023-11-21T01:01:43;0.90;99.90
21778;DHT22;11050;52.222;20.916;2023-11-21T01:04:09;0.90;99.90
21778;DHT22;11050;52.222;20.916;2023-11-21T01:06:36;0.90;99.90
21778;DHT22;11050;52.222;20.916;2023-11-21T01:09:01;0.80;99.90
21778;DHT22;11050;52.222;20.916;2023-11-21T01:11:33;0.90;99.90
21778;DHT22;11050;52.222;20.916;2023-11-21T01:14:01;0.80;99.90
21778;DHT22;11050;52.222;20.916;2023-11-21T01:16:28;0.80;99.90
21778;DHT22;11050;52.222;20.916;2023-11-21T01:18:54;0.80;99.90
21778;DHT22;11050;52.222;20.916;2023-11-21T01:21:20;0.80;99.90
21778;DHT22;11050;52.222;20.916;2023-11-21T01:23:46;0.80;99.90
21778;DHT22;11050;52.222;20.916;2023-11-21T01:26:13;0.80;99.90
21778;DHT22;11050;52.222;20.916;2023-11-21T01:28:38;0.80;99.90
21778;DHT22;11050;52.222;20.916;2023-11-21T01:31:04;0.80;99.90
21778;DHT22;11050;52.222;20.916;2023-11-21T01:33:30;0.80;99.90
21778;DHT22;11050;52.222;20.916;2023-11-21T01:35:55;0.80;99.90
21778;DHT22;11050;52.222;20.916;2023-11-21T01:38:21;0.70;99.90
21778;DHT22;11050;52.222;20.916;2023-11-21T01:40:47;0.70;99.90
21778;DHT22;11050;52.222;20.916;2023-11-21T01:43:13;0.70;99.90
21778;DHT22;11050;52.222;20.916;2023-11-21T01:45:39;0.80;99.90
21778;DHT22;11050;52.222;20.916;2023-11-21T01:48:04;0.70;99.90
21778;DHT22;11050;52.222;20.916;2023-11-21T01:50:32;0.70;99.90
21778;DHT22;11050;52.222;20.916;2023-11-21T01:52:59;0.80;99.90
21778;DHT22;11050;52.222;20.916;2023-11-21T01:55:26;0.70;99.90
21778;DHT22;11050;52.222;20.916;2023-11-21T01:57:52;0.80;99.90
21778;DHT22;11050;52.222;20.916;2023-11-21T02:00:19;0.70;99.90
21778;DHT22;11050;52.222;20.916;2023-11-21T02:02:46;0.70;99.90
21778;DHT22;11050;52.222;20.916;2023-11-21T02:05:14;0.70;99.90
21778;DHT22;11050;52.222;20.916;2023-11-21T02:07:44;0.60;99.90
21778;DHT22;11050;52.222;20.916;2023-11-21T02:10:13;0.60;99.90
21778;DHT22;11050;52.222;20.916;2023-11-21T02:12:41;0.60;99.90
21778;DHT22;11050;52.222;20.916;2023-11-21T02:15:09;0.60;99.90
21778;DHT22;11050;52.222;20.916;2023-11-21T02:17:41;0.60;99.90
21778;DHT22;11050;52.222;20.916;2023-11-21T02:20:11;0.60;99.90
21778;DHT22;11050;52.222;20.916;2023-11-21T02:22:41;0.50;99.90
21778;DHT22;11050;52.222;20.916;2023-11-21T02:25:08;0.60;99.90
21778;DHT22;11050;52.222;20.916;2023-11-21T02:27:34;0.50;99.90
21778;DHT22;11050;52.222;20.916;2023-11-21T02:30:00;0.60;99.90
21778;DHT22;11050;52.222;20.916;2023-11-21T02:32:26;0.50;99.90
21778;DHT22;11050;52.222;20.916;2023-11-21T02:34:52;0.50;99.90
21778;DHT22;11050;52.222;20.916;2023-11-21T02:37:21;0.50;99.90
21778;DHT22;11050;52.222;20.916;2023-11-21T02:39:46;0.50;99.90
21778;DHT22;11050;52.222;20.916;2023-11-21T02:42:12;0.50;99.90
21778;DHT22;11050;52.222;20.916;2023-11-21T02:44:38;0.50;99.90
21778;DHT22;11050;52.222;20.916;2023-11-21T02:47:04;0.50;99.90
21778;DHT22;11050;52.222;20.916;2023-11-21T02:49:29;0.50;99.90
21778;DHT22;11050;52.222;20.916;2023-11-21T02:51:56;0.40;99.90
21778;DHT22;11050;52.222;20.916;2023-11-21T02:54:22;0.40;99.90
21778;DHT22;11050;52.222;20.916;2023-11-21T02:56:48;0.40;99.90
21778;DHT22;11050;52.222;20.916;2023-11-21T02:59:15;0.40;99.90
21778;DHT22;11050;52.222;20.916;2023-11-21T03:01:41;0.40;99.90
21778;DHT22;11050;52.222;20.916;2023-11-21T03:04:07;0.40;99.90
21778;DHT22;11050;52.222;20.916;2023-11-21T03:06:33;0.30;99.90
21778;DHT22;11050;52.222;20.916;2023-11-21T03:08:59;0.30;99.90
21778;DHT22;11050;52.222;20.916;2023-11-21T03:11:25;0.30;99.90
21778;DHT22;11050;52.222;20.916;2023-11-21T03:13:51;0.30;99.90
21778;DHT22;11050;52.222;20.916;2023-11-21T03:16:16;0.30;99.90
21778;DHT22;11050;52.222;20.916;2023-11-21T03:18:42;0.30;99.90
21778;DHT22;11050;52.222;20.916;2023-11-21T03:21:08;0.20;99.90
21778;DHT22;11050;52.222;20.916;2023-11-21T03:23:37;0.20;99.90
21778;DHT22;11050;52.222;20.916;2023-11-21T03:26:03;0.20;99.90
21778;DHT22;11050;52.222;20.916;2023-11-21T03:28:29;0.20;99.90
21778;DHT22;11050;52.222;20.916;2023-11-21T03:30:58;0.20;99.90
21778;DHT22;11050;52.222;20.916;2023-11-21T03:33:23;0.20;99.90
21778;DHT22;11050;52.222;20.916;2023-11-21T03:35:49;0.20;99.90
21778;DHT22;11050;52.222;20.916;2023-11-21T03:38:15;0.20;99.90
21778;DHT22;11050;52.222;20.916;2023-11-21T03:40:41;0.20;99.90
21778;DHT22;11050;52.222;20.916;2023-11-21T03:43:07;0.20;99.90
21778;DHT22;11050;52.222;20.916;2023-11-21T03:45:33;0.20;99.90
21778;DHT22;11050;52.222;20.916;2023-11-21T03:47:58;0.20;99.90
21778;DHT22;11050;52.222;20.916;2023-11-21T03:50:28;0.20;99.90
21778;DHT22;11050;52.222;20.916;2023-11-21T03:52:54;0.20;99.90
21778;DHT22;11050;52.222;20.916;2023-11-21T03:55:20;0.20;99.90
21778;DHT22;11050;52.222;20.916;2023-11-21T03:57:45;0.20;99.90
21778;DHT22;11050;52.222;20.916;2023-11-21T04:00:11;0.10;99.90
21778;DHT22;11050;52.222;20.916;2023-11-21T04:02:38;0.20;99.90
21778;DHT22;11050;52.222;20.916;2023-11-21T04:05:05;0.20;99.90
21778;DHT22;11050;52.222;20.916;2023-11-21T04:07:32;0.20;99.90
21778;DHT22;11050;52.222;20.916;2023-11-21T04:09:59;0.10;99.90
21778;DHT22;11050;52.222;20.916;2023-11-21T04:12:25;0.10;99.90
21778;DHT22;11050;52.222;20.916;2023-11-21T04:14:51;0.10;99.90
21778;DHT22;11050;52.222;20.916;2023-11-21T04:17:19;0.10;99.90
21778;DHT22;11050;52.222;20.916;2023-11-21T04:19:45;0.10;99.90
21778;DHT22;11050;52.222;20.916;2023-11-21T04:22:12;0.10;99.90
21778;DHT22;11050;52.222;20.916;2023-11-21T04:24:37;0.10;99.90
21778;DHT22;11050;52.222;20.916;2023-11-21T04:27:03;0.00;99.90
21778;DHT22;11050;52.222;20.916;2023-11-21T04:29:29;0.00;99.90
21778;DHT22;11050;52.222;20.916;2023-11-21T04:31:55;0.00;99.90
21778;DHT22;11050;52.222;20.916;2023-11-21T04:34:20;0.00;99.90
21778;DHT22;11050;52.222;20.916;2023-11-21T04:36:46;0.00;99.90
21778;DHT22;11050;52.222;20.916;2023-11-21T04:39:12;0.00;99.90
21778;DHT22;11050;52.222;20.916;2023-11-21T04:41:37;0.00;99.90
21778;DHT22;11050;52.222;20.916;2023-11-21T04:44:05;0.00;99.90
21778;DHT22;11050;52.222;20.916;2023-11-21T04:46:32;0.00;99.90
21778;DHT22;11050;52.222;20.916;2023-11-21T04:48:58;0.00;99.90
21778;DHT22;11050;52.222;20.916;2023-11-21T04:51:24;0.00;99.90
21778;DHT22;11050;52.222;20.916;2023-11-21T04:53:50;0.00;99.90
21778;DHT22;11050;52.222;20.916;2023-11-21T04:56:15;0.00;99.90
21778;DHT22;11050;52.222;20.916;2023-11-21T04:58:41;0.00;99.90
21778;DHT22;11050;52.222;20.916;2023-11-21T05:01:08;0.00;99.90
21778;DHT22;11050;52.222;20.916;2023-11-21T05:03:34;0.00;99.90
21778;DHT22;11050;52.222;20.916;2023-11-21T05:06:00;0.00;99.90
21778;DHT22;11050;52.222;20.916;2023-11-21T05:08:26;0.00;99.90
21778;DHT22;11050;52.222;20.916;2023-11-21T05:10:52;0.00;99.90
21778;DHT22;11050;52.222;20.916;2023-11-21T05:13:19;0.00;99.90
21778;DHT22;11050;52.222;20.916;2023-11-21T05:15:45;0.00;99.90
21778;DHT22;11050;52.222;20.916;2023-11-21T05:18:11;0.00;99.90
21778;DHT22;11050;52.222;20.916;2023-11-21T05:20:39;0.00;99.90
21778;DHT22;11050;52.222;20.916;2023-11-21T05:23:06;0.00;99.90
21778;DHT22;11050;52.222;20.916;2023-11-21T05:25:33;0.00;99.90
21778;DHT22;11050;52.222;20.916;2023-11-21T05:27:59;0.00;99.90
21778;DHT22;11050;52.222;20.916;2023-11-21T05:30:27;-0.10;99.90
21778;DHT22;11050;52.222;20.916;2023-11-21T05:32:53;-0.10;99.90
21778;DHT22;11050;52.222;20.916;2023-11-21T05:35:19;-0.10;99.90
21778;DHT22;11050;52.222;20.916;2023-11-21T05:37:45;-0.10;99.90
21778;DHT22;11050;52.222;20.916;2023-11-21T05:40:11;-0.10;99.90
21778;DHT22;11050;52.222;20.916;2023-11-21T05:42:39;-0.10;99.90
21778;DHT22;11050;52.222;20.916;2023-11-21T05:45:06;-0.10;99.90
21778;DHT22;11050;52.222;20.916;2023-11-21T05:47:44;-0.10;99.90
21778;DHT22;11050;52.222;20.916;2023-11-21T05:50:12;-0.10;99.90
21778;DHT22;11050;52.222;20.916;2023-11-21T05:52:41;-0.10;99.90
21778;DHT22;11050;52.222;20.916;2023-11-21T05:55:08;-0.10;99.90
21778;DHT22;11050;52.222;20.916;2023-11-21T05:57:35;-0.10;99.90
21778;DHT22;11050;52.222;20.916;2023-11-21T06:00:07;-0.10;99.90
21778;DHT22;11050;52.222;20.916;2023-11-21T06:02:43;-0.10;99.90
21778;DHT22;11050;52.222;20.916;2023-11-21T06:05:09;-0.10;99.90
21778;DHT22;11050;52.222;20.916;2023-11-21T06:07:36;-0.10;99.90
21778;DHT22;11050;52.222;20.916;2023-11-21T06:10:07;-0.10;99.90
21778;DHT22;11050;52.222;20.916;2023-11-21T06:12:37;-0.10;99.90
21778;DHT22;11050;52.222;20.916;2023-11-21T06:15:04;-0.10;99.90
21778;DHT22;11050;52.222;20.916;2023-11-21T06:17:31;-0.20;99.90
21778;DHT22;11050;52.222;20.916;2023-11-21T06:19:57;-0.20;99.90
21778;DHT22;11050;52.222;20.916;2023-11-21T06:22:22;-0.20;99.90
21778;DHT22;11050;52.222;20.916;2023-11-21T06:24:48;-0.20;99.90
21778;DHT22;11050;52.222;20.916;2023-11-21T06:27:14;-0.20;99.90
21778;DHT22;11050;52.222;20.916;2023-11-21T06:29:39;-0.20;99.90
21778;DHT22;11050;52.222;20.916;2023-11-21T06:32:07;-0.20;99.90
21778;DHT22;11050;52.222;20.916;2023-11-21T06:34:33;-0.20;99.90
21778;DHT22;11050;52.222;20.916;2023-11-21T06:36:59;-0.10;99.90
21778;DHT22;11050;52.222;20.916;2023-11-21T06:39:25;-0.10;99.90
21778;DHT22;11050;52.222;20.916;2023-11-21T06:41:50;-0.10;99.90
21778;DHT22;11050;52.222;20.916;2023-11-21T06:44:16;-0.10;99.90
21778;DHT22;11050;52.222;20.916;2023-11-21T06:46:41;-0.10;99.90
21778;DHT22;11050;52.222;20.916;2023-11-21T06:49:08;-0.10;99.90
21778;DHT22;11050;52.222;20.916;2023-11-21T06:51:34;-0.10;99.90
21778;DHT22;11050;52.222;20.916;2023-11-21T06:54:00;0.00;99.90
21778;DHT22;11050;52.222;20.916;2023-11-21T06:56:25;0.00;99.90
21778;DHT22;11050;52.222;20.916;2023-11-21T06:58:51;0.00;99.90
21778;DHT22;11050;52.222;20.916;2023-11-21T07:01:19;0.00;99.90
21778;DHT22;11050;52.222;20.916;2023-11-21T07:03:45;0.00;99.90
21778;DHT22;11050;52.222;20.916;2023-11-21T07:06:11;0.00;99.90
21778;DHT22;11050;52.222;20.916;2023-11-21T07:08:37;0.00;99.90
21778;DHT22;11050;52.222;20.916;2023-11-21T07:11:04;0.00;99.90
21778;DHT22;11050;52.222;20.916;2023-11-21T07:13:30;0.00;99.90
21778;DHT22;11050;52.222;20.916;2023-11-21T07:15:59;0.00;99.90
21778;DHT22;11050;52.222;20.916;2023-11-21T07:18:25;0.00;99.90
21778;DHT22;11050;52.222;20.916;2023-11-21T07:20:51;0.00;99.90
21778;DHT22;11050;52.222;20.916;2023-11-21T07:23:17;0.00;99.90
21778;DHT22;11050;52.222;20.916;2023-11-21T07:25:43;0.00;99.90
21778;DHT22;11050;52.222;20.916;2023-11-21T07:28:09;0.00;99.90
21778;DHT22;11050;52.222;20.916;2023-11-21T07:30:35;0.00;99.90
21778;DHT22;11050;52.222;20.916;2023-11-21T07:33:00;0.00;99.90
21778;DHT22;11050;52.222;20.916;2023-11-21T07:35:26;0.00;99.90
21778;DHT22;11050;52.222;20.916;2023-11-21T07:37:52;0.00;99.90
21778;DHT22;11050;52.222;20.916;2023-11-21T07:40:17;0.00;99.90
21778;DHT22;11050;52.222;20.916;2023-11-21T07:42:43;0.00;99.90
21778;DHT22;11050;52.222;20.916;2023-11-21T07:45:09;0.00;99.90
21778;DHT22;11050;52.222;20.916;2023-11-21T07:47:35;0.00;99.90
21778;DHT22;11050;52.222;20.916;2023-11-21T07:50:03;0.00;99.90
21778;DHT22;11050;52.222;20.916;2023-11-21T07:52:29;0.00;99.90
21778;DHT22;11050;52.222;20.916;2023-11-21T07:54:55;0.00;99.90
21778;DHT22;11050;52.222;20.916;2023-11-21T07:57:21;0.00;99.90
21778;DHT22;11050;52.222;20.916;2023-11-21T07:59:47;0.00;99.90
21778;DHT22;11050;52.222;20.916;2023-11-21T08:02:13;0.00;99.90
21778;DHT22;11050;52.222;20.916;2023-11-21T08:04:38;0.00;99.90
21778;DHT22;11050;52.222;20.916;2023-11-21T08:07:04;0.00;99.90
21778;DHT22;11050;52.222;20.916;2023-11-21T08:09:30;0.00;99.90
21778;DHT22;11050;52.222;20.916;2023-11-21T08:11:56;0.00;99.90
21778;DHT22;11050;52.222;20.916;2023-11-21T08:14:22;0.00;99.90
21778;DHT22;11050;52.222;20.916;2023-11-21T08:16:50;0.00;99.90
21778;DHT22;11050;52.222;20.916;2023-11-21T08:19:16;0.00;99.90
21778;DHT22;11050;52.222;20.916;2023-11-21T08:21:43;0.10;99.90
21778;DHT22;11050;52.222;20.916;2023-11-21T08:24:10;0.10;99.90
21778;DHT22;11050;52.222;20.916;2023-11-21T08:26:37;0.10;99.90
21778;DHT22;11050;52.222;20.916;2023-11-21T08:29:03;0.20;99.90
21778;DHT22;11050;52.222;20.916;2023-11-21T08:31:29;0.20;99.90
21778;DHT22;11050;52.222;20.916;2023-11-21T08:33:55;0.20;99.90
21778;DHT22;11050;52.222;20.916;2023-11-21T08:36:22;0.30;99.90
21778;DHT22;11050;52.222;20.916;2023-11-21T08:38:50;0.30;99.90
21778;DHT22;11050;52.222;20.916;2023-11-21T08:41:17;0.30;99.90
21778;DHT22;11050;52.222;20.916;2023-11-21T08:43:50;0.40;99.90
21778;DHT22;11050;52.222;20.916;2023-11-21T08:46:16;0.40;99.90
21778;DHT22;11050;52.222;20.916;2023-11-21T08:48:45;0.40;99.90
21778;DHT22;11050;52.222;20.916;2023-11-21T08:51:11;0.40;99.90
21778;DHT22;11050;52.222;20.916;2023-11-21T08:53:37;0.50;99.90
21778;DHT22;11050;52.222;20.916;2023-11-21T08:56:04;0.40;99.90
21778;DHT22;11050;52.222;20.916;2023-11-21T08:58:31;0.50;99.90
21778;DHT22;11050;52.222;20.916;2023-11-21T09:00:57;0.40;99.90
21778;DHT22;11050;52.222;20.916;2023-11-21T09:03:23;0.40;99.90
21778;DHT22;11050;52.222;20.916;2023-11-21T09:05:50;0.40;99.90
21778;DHT22;11050;52.222;20.916;2023-11-21T09:08:16;0.50;99.90
21778;DHT22;11050;52.222;20.916;2023-11-21T09:10:42;0.40;99.90
21778;DHT22;11050;52.222;20.916;2023-11-21T09:13:08;0.40;99.90
21778;DHT22;11050;52.222;20.916;2023-11-21T09:15:35;0.50;99.90
21778;DHT22;11050;52.222;20.916;2023-11-21T09:18:01;0.50;99.90
21778;DHT22;11050;52.222;20.916;2023-11-21T09:20:27;0.50;99.90
21778;DHT22;11050;52.222;20.916;2023-11-21T09:22:53;0.50;99.90
21778;DHT22;11050;52.222;20.916;2023-11-21T09:25:20;0.50;99.90
21778;DHT22;11050;52.222;20.916;2023-11-21T09:27:46;0.60;99.90
21778;DHT22;11050;52.222;20.916;2023-11-21T09:30:12;0.60;99.90
21778;DHT22;11050;52.222;20.916;2023-11-21T09:32:40;0.60;99.90
21778;DHT22;11050;52.222;20.916;2023-11-21T09:35:06;0.60;99.90
21778;DHT22;11050;52.222;20.916;2023-11-21T09:37:34;0.60;99.90
21778;DHT22;11050;52.222;20.916;2023-11-21T09:40:04;0.60;99.90
21778;DHT22;11050;52.222;20.916;2023-11-21T09:42:36;0.70;99.90
21778;DHT22;11050;52.222;20.916;2023-11-21T09:45:27;0.70;99.90
21778;DHT22;11050;52.222;20.916;2023-11-21T09:47:55;0.70;99.90
21778;DHT22;11050;52.222;20.916;2023-11-21T09:50:22;0.70;99.90
21778;DHT22;11050;52.222;20.916;2023-11-21T09:55:52;0.80;99.90
21778;DHT22;11050;52.222;20.916;2023-11-21T09:58:20;0.80;99.90
21778;DHT22;11050;52.222;20.916;2023-11-21T10:00:49;0.90;99.90
21778;DHT22;11050;52.222;20.916;2023-11-21T10:03:18;1.00;99.90
21778;DHT22;11050;52.222;20.916;2023-11-21T10:05:44;1.00;99.90
21778;DHT22;11050;52.222;20.916;2023-11-21T10:08:15;1.00;99.90
21778;DHT22;11050;52.222;20.916;2023-11-21T10:10:46;1.00;99.90
21778;DHT22;11050;52.222;20.916;2023-11-21T10:13:15;1.10;99.90
21778;DHT22;11050;52.222;20.916;2023-11-21T10:15:46;1.10;99.90
21778;DHT22;11050;52.222;20.916;2023-11-21T10:18:15;1.10;99.90
21778;DHT22;11050;52.222;20.916;2023-11-21T10:20:42;1.10;99.90
21778;DHT22;11050;52.222;20.916;2023-11-21T10:23:09;1.10;99.90
21778;DHT22;11050;52.222;20.916;2023-11-21T10:25:37;1.10;99.90
21778;DHT22;11050;52.222;20.916;2023-11-21T10:28:03;1.20;99.90
21778;DHT22;11050;52.222;20.916;2023-11-21T10:30:37;1.20;99.90
21778;DHT22;11050;52.222;20.916;2023-11-21T10:33:07;1.20;99.90
21778;DHT22;11050;52.222;20.916;2023-11-21T10:35:45;1.30;99.90
21778;DHT22;11050;52.222;20.916;2023-11-21T10:38:13;1.30;99.90
21778;DHT22;11050;52.222;20.916;2023-11-21T10:40:40;1.30;99.90
21778;DHT22;11050;52.222;20.916;2023-11-21T10:43:08;1.30;99.90
21778;DHT22;11050;52.222;20.916;2023-11-21T10:45:36;1.30;99.90
21778;DHT22;11050;52.222;20.916;2023-11-21T10:48:06;1.30;99.90
21778;DHT22;11050;52.222;20.916;2023-11-21T10:50:34;1.30;99.90
21778;DHT22;11050;52.222;20.916;2023-11-21T10:53:02;1.30;99.90
21778;DHT22;11050;52.222;20.916;2023-11-21T10:55:30;1.30;99.90
21778;DHT22;11050;52.222;20.916;2023-11-21T10:57:59;1.30;99.90
21778;DHT22;11050;52.222;20.916;2023-11-21T11:00:28;1.30;99.90
21778;DHT22;11050;52.222;20.916;2023-11-21T11:02:55;1.30;99.90
21778;DHT22;11050;52.222;20.916;2023-11-21T11:05:22;1.30;99.90
21778;DHT22;11050;52.222;20.916;2023-11-21T11:07:58;1.20;99.90
21778;DHT22;11050;52.222;20.916;2023-11-21T11:10:30;1.20;99.90
21778;DHT22;11050;52.222;20.916;2023-11-21T11:12:57;1.20;99.90
21778;DHT22;11050;52.222;20.916;2023-11-21T11:15:25;1.20;99.90
21778;DHT22;11050;52.222;20.916;2023-11-21T11:17:52;1.20;99.90
21778;DHT22;11050;52.222;20.916;2023-11-21T11:20:23;1.20;99.90
21778;DHT22;11050;52.222;20.916;2023-11-21T11:23:32;1.20;99.90
21778;DHT22;11050;52.222;20.916;2023-11-21T11:32:24;1.30;99.90
21778;DHT22;11050;52.222;20.916;2023-11-21T11:35:06;1.30;99.90
21778;DHT22;11050;52.222;20.916;2023-11-21T11:37:42;1.20;99.90
21778;DHT22;11050;52.222;20.916;2023-11-21T11:40:11;1.20;99.90
21778;DHT22;11050;52.222;20.916;2023-11-21T11:42:37;1.20;99.90
21778;DHT22;11050;52.222;20.916;2023-11-21T11:45:17;1.20;99.90
21778;DHT22;11050;52.222;20.916;2023-11-21T11:47:47;1.20;99.90
21778;DHT22;11050;52.222;20.916;2023-11-21T11:50:13;1.10;99.90
21778;DHT22;11050;52.222;20.916;2023-11-21T11:52:49;1.10;99.90
21778;DHT22;11050;52.222;20.916;2023-11-21T11:55:19;1.10;99.90
21778;DHT22;11050;52.222;20.916;2023-11-21T11:57:53;1.10;99.90
21778;DHT22;11050;52.222;20.916;2023-11-21T12:00:33;1.10;99.90
21778;DHT22;11050;52.222;20.916;2023-11-21T12:03:03;1.00;99.90
21778;DHT22;11050;52.222;20.916;2023-11-21T12:05:34;1.00;99.90
21778;DHT22;11050;52.222;20.916;2023-11-21T12:08:05;0.90;99.90
21778;DHT22;11050;52.222;20.916;2023-11-21T12:10:36;0.90;99.90
21778;DHT22;11050;52.222;20.916;2023-11-21T12:13:07;0.80;99.90
21778;DHT22;11050;52.222;20.916;2023-11-21T12:15:38;0.90;99.90
21778;DHT22;11050;52.222;20.916;2023-11-21T12:18:06;0.90;99.90
21778;DHT22;11050;52.222;20.916;2023-11-21T12:20:32;0.90;99.90
21778;DHT22;11050;52.222;20.916;2023-11-21T12:23:04;0.90;99.90
21778;DHT22;11050;52.222;20.916;2023-11-21T12:25:31;0.90;99.90
21778;DHT22;11050;52.222;20.916;2023-11-21T12:27:59;0.90;99.90
21778;DHT22;11050;52.222;20.916;2023-11-21T12:30:33;0.80;99.90
21778;DHT22;11050;52.222;20.916;2023-11-21T12:33:03;0.90;99.90
21778;DHT22;11050;52.222;20.916;2023-11-21T12:35:34;0.80;99.90
21778;DHT22;11050;52.222;20.916;2023-11-21T12:38:01;0.80;99.90
21778;DHT22;11050;52.222;20.916;2023-11-21T12:40:30;0.80;99.90
21778;DHT22;11050;52.222;20.916;2023-11-21T12:42:57;0.80;99.90
21778;DHT22;11050;52.222;20.916;2023-11-21T12:45:26;0.70;99.90
21778;DHT22;11050;52.222;20.916;2023-11-21T12:47:58;0.80;99.90
21778;DHT22;11050;52.222;20.916;2023-11-21T12:50:36;0.70;99.90
21778;DHT22;11050;52.222;20.916;2023-11-21T12:53:12;0.70;99.90
21778;DHT22;11050;52.222;20.916;2023-11-21T12:55:38;0.80;99.90
21778;DHT22;11050;52.222;20.916;2023-11-21T12:58:06;0.80;99.90
21778;DHT22;11050;52.222;20.916;2023-11-21T13:00:44;0.80;99.90
21778;DHT22;11050;52.222;20.916;2023-11-21T13:03:12;0.80;99.90
21778;DHT22;11050;52.222;20.916;2023-11-21T13:05:42;0.80;99.90
21778;DHT22;11050;52.222;20.916;2023-11-21T13:08:16;0.80;99.90
21778;DHT22;11050;52.222;20.916;2023-11-21T13:10:45;0.70;99.90
21778;DHT22;11050;52.222;20.916;2023-11-21T13:13:14;0.70;99.90
21778;DHT22;11050;52.222;20.916;2023-11-21T13:15:50;0.70;99.90
21778;DHT22;11050;52.222;20.916;2023-11-21T13:18:24;0.70;99.90
21778;DHT22;11050;52.222;20.916;2023-11-21T13:20:53;0.60;99.90
21778;DHT22;11050;52.222;20.916;2023-11-21T13:23:20;0.60;99.90
21778;DHT22;11050;52.222;20.916;2023-11-21T13:25:46;0.60;99.90
21778;DHT22;11050;52.222;20.916;2023-11-21T13:28:13;0.50;99.90
21778;DHT22;11050;52.222;20.916;2023-11-21T13:30:41;0.60;99.90
21778;DHT22;11050;52.222;20.916;2023-11-21T13:33:08;0.60;99.90
21778;DHT22;11050;52.222;20.916;2023-11-21T13:35:37;0.50;99.90
21778;DHT22;11050;52.222;20.916;2023-11-21T13:38:11;0.50;99.90
21778;DHT22;11050;52.222;20.916;2023-11-21T13:40:39;0.50;99.90
21778;DHT22;11050;52.222;20.916;2023-11-21T13:43:12;0.50;99.90
21778;DHT22;11050;52.222;20.916;2023-11-21T13:45:40;0.50;99.90
21778;DHT22;11050;52.222;20.916;2023-11-21T13:48:07;0.50;99.90
21778;DHT22;11050;52.222;20.916;2023-11-21T13:50:41;0.40;99.90
21778;DHT22;11050;52.222;20.916;2023-11-21T13:53:23;0.40;99.90
21778;DHT22;11050;52.222;20.916;2023-11-21T13:55:53;0.40;99.90
21778;DHT22;11050;52.222;20.916;2023-11-21T13:58:21;0.40;99.90
21778;DHT22;11050;52.222;20.916;2023-11-21T14:01:00;0.30;99.90
21778;DHT22;11050;52.222;20.916;2023-11-21T14:03:31;0.30;99.90
21778;DHT22;11050;52.222;20.916;2023-11-21T14:06:10;0.30;99.90
21778;DHT22;11050;52.222;20.916;2023-11-21T14:08:41;0.20;99.90
21778;DHT22;11050;52.222;20.916;2023-11-21T14:11:07;0.20;99.90
21778;DHT22;11050;52.222;20.916;2023-11-21T14:13:34;0.20;99.90
21778;DHT22;11050;52.222;20.916;2023-11-21T14:16:00;0.20;99.90
21778;DHT22;11050;52.222;20.916;2023-11-21T14:18:28;0.20;99.90
21778;DHT22;11050;52.222;20.916;2023-11-21T14:21:04;0.20;99.90
21778;DHT22;11050;52.222;20.916;2023-11-21T14:23:36;0.20;99.90
21778;DHT22;11050;52.222;20.916;2023-11-21T14:26:03;0.20;99.90
21778;DHT22;11050;52.222;20.916;2023-11-21T14:28:31;0.10;99.90
21778;DHT22;11050;52.222;20.916;2023-11-21T14:30:57;0.10;99.90
21778;DHT22;11050;52.222;20.916;2023-11-21T14:33:22;0.10;99.90
21778;DHT22;11050;52.222;20.916;2023-11-21T14:35:48;0.10;99.90
21778;DHT22;11050;52.222;20.916;2023-11-21T14:38:15;0.00;99.90
21778;DHT22;11050;52.222;20.916;2023-11-21T14:40:41;0.00;99.90
21778;DHT22;11050;52.222;20.916;2023-11-21T14:43:07;0.00;99.90
21778;DHT22;11050;52.222;20.916;2023-11-21T14:45:33;0.00;99.90
21778;DHT22;11050;52.222;20.916;2023-11-21T14:48:00;-0.10;99.90
21778;DHT22;11050;52.222;20.916;2023-11-21T14:50:38;-0.10;99.90
21778;DHT22;11050;52.222;20.916;2023-11-21T14:53:07;-0.10;99.90
21778;DHT22;11050;52.222;20.916;2023-11-21T14:55:38;-0.10;99.90
21778;DHT22;11050;52.222;20.916;2023-11-21T14:58:19;-0.20;99.90
21778;DHT22;11050;52.222;20.916;2023-11-21T15:00:56;-0.20;99.90
21778;DHT22;11050;52.222;20.916;2023-11-21T15:03:28;-0.20;99.90
21778;DHT22;11050;52.222;20.916;2023-11-21T15:06:01;-0.20;99.90
21778;DHT22;11050;52.222;20.916;2023-11-21T15:08:56;-0.20;99.90
21778;DHT22;11050;52.222;20.916;2023-11-21T15:11:32;-0.20;99.90
21778;DHT22;11050;52.222;20.916;2023-11-21T15:13:58;-0.20;99.90
21778;DHT22;11050;52.222;20.916;2023-11-21T15:16:25;-0.20;99.90
21778;DHT22;11050;52.222;20.916;2023-11-21T15:18:54;-0.20;99.90
21778;DHT22;11050;52.222;20.916;2023-11-21T15:21:20;-0.20;99.90
21778;DHT22;11050;52.222;20.916;2023-11-21T15:23:47;-0.20;99.90
21778;DHT22;11050;52.222;20.916;2023-11-21T15:26:14;-0.30;99.90
21778;DHT22;11050;52.222;20.916;2023-11-21T15:28:39;-0.30;99.90
21778;DHT22;11050;52.222;20.916;2023-11-21T15:31:05;-0.30;99.90
21778;DHT22;11050;52.222;20.916;2023-11-21T15:33:33;-0.30;99.90
21778;DHT22;11050;52.222;20.916;2023-11-21T15:36:01;-0.30;99.90
21778;DHT22;11050;52.222;20.916;2023-11-21T15:38:27;-0.30;99.90
21778;DHT22;11050;52.222;20.916;2023-11-21T15:40:54;-0.30;99.90